sensor_id;sensor_type;location;lat;lon;timestamp;temperature;humidity
19385;DHT22;9828;54.122;17.974;2022-12-20T00:00:31;1.10;99.90
19385;DHT22;9828;54.122;17.974;2022-12-20T00:05:52;1.10;99.90
19385;DHT22;9828;54.122;17.974;2022-12-20T00:11:13;1.10;99.90
19385;DHT22;9828;54.122;17.974;2022-12-20T00:16:35;1.10;99.90
19385;DHT22;9828;54.122;17.974;2022-12-20T00:21:56;1.10;99.90
19385;DHT22;9828;54.122;17.974;2022-12-20T00:27:18;1.10;99.90
19385;DHT22;9828;54.122;17.974;2022-12-20T00:32:39;1.20;99.90
19385;DHT22;9828;54.122;17.974;2022-12-20T00:38:00;1.20;99.90
19385;DHT22;9828;54.122;17.974;2022-12-20T00:43:21;1.20;99.90
19385;DHT22;9828;54.122;17.974;2022-12-20T00:48:42;1.30;99.90
19385;DHT22;9828;54.122;17.974;2022-12-20T00:54:03;1.40;99.90
19385;DHT22;9828;54.122;17.974;2022-12-20T00:59:25;1.40;99.90
19385;DHT22;9828;54.122;17.974;2022-12-20T01:04:48;1.50;99.90
19385;DHT22;9828;54.122;17.974;2022-12-20T01:10:10;1.50;99.90
19385;DHT22;9828;54.122;17.974;2022-12-20T01:15:32;1.60;99.90
19385;DHT22;9828;54.122;17.974;2022-12-20T01:21:02;1.60;99.90
19385;DHT22;9828;54.122;17.974;2022-12-20T01:26:26;1.60;99.90
19385;DHT22;9828;54.122;17.974;2022-12-20T01:31:48;1.70;99.90
19385;DHT22;9828;54.122;17.974;2022-12-20T01:37:09;1.70;99.90
19385;DHT22;9828;54.122;17.974;2022-12-20T01:42:31;1.90;99.90
19385;DHT22;9828;54.122;17.974;2022-12-20T01:47:52;2.00;99.90
19385;DHT22;9828;54.122;17.974;2022-12-20T01:53:15;1.90;99.90
19385;DHT22;9828;54.122;17.974;2022-12-20T01:58:38;1.90;99.90
19385;DHT22;9828;54.122;17.974;2022-12-20T02:10:10;2.00;99.90
19385;DHT22;9828;54.122;17.974;2022-12-20T02:16:02;2.00;99.90
19385;DHT22;9828;54.122;17.974;2022-12-20T02:21:48;2.10;99.90
19385;DHT22;9828;54.122;17.974;2022-12-20T02:27:29;2.20;99.90
19385;DHT22;9828;54.122;17.974;2022-12-20T02:32:59;2.10;99.90
19385;DHT22;9828;54.122;17.974;2022-12-20T02:38:32;2.10;99.90
19385;DHT22;9828;54.122;17.974;2022-12-20T02:44:15;2.20;99.90
19385;DHT22;9828;54.122;17.974;2022-12-20T02:50:21;2.20;99.90
19385;DHT22;9828;54.122;17.974;2022-12-20T02:56:04;2.30;99.90
19385;DHT22;9828;54.122;17.974;2022-12-20T03:01:30;2.20;99.90
19385;DHT22;9828;54.122;17.974;2022-12-20T03:07:12;2.20;99.90
19385;DHT22;9828;54.122;17.974;2022-12-20T03:12:34;2.20;99.90
19385;DHT22;9828;54.122;17.974;2022-12-20T03:17:55;2.20;99.90
19385;DHT22;9828;54.122;17.974;2022-12-20T03:23:17;2.20;99.90
19385;DHT22;9828;54.122;17.974;2022-12-20T03:28:38;2.10;99.90
19385;DHT22;9828;54.122;17.974;2022-12-20T03:34:01;2.20;99.90
19385;DHT22;9828;54.122;17.974;2022-12-20T03:39:23;2.20;99.90
19385;DHT22;9828;54.122;17.974;2022-12-20T03:44:46;2.30;99.90
19385;DHT22;9828;54.122;17.974;2022-12-20T03:50:08;2.20;99.90
19385;DHT22;9828;54.122;17.974;2022-12-20T03:55:30;2.10;99.90
19385;DHT22;9828;54.122;17.974;2022-12-20T04:00:52;2.20;99.90
19385;DHT22;9828;54.122;17.974;2022-12-20T04:06:35;2.20;99.90
19385;DHT22;9828;54.122;17.974;2022-12-20T04:11:56;2.20;99.90
19385;DHT22;9828;54.122;17.974;2022-12-20T04:17:17;2.20;99.90
19385;DHT22;9828;54.122;17.974;2022-12-20T04:22:40;2.20;99.90
19385;DHT22;9828;54.122;17.974;2022-12-20T04:28:01;2.30;99.90
19385;DHT22;9828;54.122;17.974;2022-12-20T04:33:24;2.30;99.90
19385;DHT22;9828;54.122;17.974;2022-12-20T04:38:47;2.30;99.90
19385;DHT22;9828;54.122;17.974;2022-12-20T04:44:08;2.20;99.90
19385;DHT22;9828;54.122;17.974;2022-12-20T04:49:30;2.20;99.90
19385;DHT22;9828;54.122;17.974;2022-12-20T04:54:51;2.20;99.90
19385;DHT22;9828;54.122;17.974;2022-12-20T05:00:18;2.30;99.90
19385;DHT22;9828;54.122;17.974;2022-12-20T05:05:47;2.30;99.90
19385;DHT22;9828;54.122;17.974;2022-12-20T05:11:09;2.30;99.90
19385;DHT22;9828;54.122;17.974;2022-12-20T05:16:31;2.40;99.90
19385;DHT22;9828;54.122;17.974;2022-12-20T05:21:54;2.30;99.90
19385;DHT22;9828;54.122;17.974;2022-12-20T05:27:42;2.30;99.90
19385;DHT22;9828;54.122;17.974;2022-12-20T05:33:04;2.20;99.90
19385;DHT22;9828;54.122;17.974;2022-12-20T05:38:25;2.30;99.90
19385;DHT22;9828;54.122;17.974;2022-12-20T05:43:47;2.40;99.90
19385;DHT22;9828;54.122;17.974;2022-12-20T05:49:09;2.30;99.90
19385;DHT22;9828;54.122;17.974;2022-12-20T05:54:31;2.30;99.90
19385;DHT22;9828;54.122;17.974;2022-12-20T05:59:59;2.30;99.90
19385;DHT22;9828;54.122;17.974;2022-12-20T06:05:24;2.40;99.90
19385;DHT22;9828;54.122;17.974;2022-12-20T06:10:47;2.30;99.90
19385;DHT22;9828;54.122;17.974;2022-12-20T06:16:10;2.40;99.90
19385;DHT22;9828;54.122;17.974;2022-12-20T06:21:31;2.40;99.90
19385;DHT22;9828;54.122;17.974;2022-12-20T06:26:53;2.40;99.90
19385;DHT22;9828;54.122;17.974;2022-12-20T06:32:17;2.40;99.90
19385;DHT22;9828;54.122;17.974;2022-12-20T06:37:39;2.40;99.90
19385;DHT22;9828;54.122;17.974;2022-12-20T06:43:00;2.40;99.90
19385;DHT22;9828;54.122;17.974;2022-12-20T06:48:22;2.40;99.90
19385;DHT22;9828;54.122;17.974;2022-12-20T06:53:44;2.40;99.90
19385;DHT22;9828;54.122;17.974;2022-12-20T06:59:05;2.50;99.90
19385;DHT22;9828;54.122;17.974;2022-12-20T07:04:27;2.40;99.90
19385;DHT22;9828;54.122;17.974;2022-12-20T07:09:48;2.40;99.90
19385;DHT22;9828;54.122;17.974;2022-12-20T07:15:09;2.40;99.90
19385;DHT22;9828;54.122;17.974;2022-12-20T07:20:32;2.40;99.90
19385;DHT22;9828;54.122;17.974;2022-12-20T07:25:58;2.40;99.90
19385;DHT22;9828;54.122;17.974;2022-12-20T07:31:19;2.40;99.90
19385;DHT22;9828;54.122;17.974;2022-12-20T07:36:41;2.40;99.90
19385;DHT22;9828;54.122;17.974;2022-12-20T07:42:02;2.40;99.90
19385;DHT22;9828;54.122;17.974;2022-12-20T07:47:34;2.40;99.90
19385;DHT22;9828;54.122;17.974;2022-12-20T07:52:56;2.40;99.90
19385;DHT22;9828;54.122;17.974;2022-12-20T07:58:18;2.40;99.90
19385;DHT22;9828;54.122;17.974;2022-12-20T08:03:46;2.50;99.90
19385;DHT22;9828;54.122;17.974;2022-12-20T08:09:10;2.40;99.90
19385;DHT22;9828;54.122;17.974;2022-12-20T08:14:33;2.40;99.90
19385;DHT22;9828;54.122;17.974;2022-12-20T08:19:55;2.40;99.90
19385;DHT22;9828;54.122;17.974;2022-12-20T08:25:17;2.50;99.90
19385;DHT22;9828;54.122;17.974;2022-12-20T08:30:39;2.50;99.90
19385;DHT22;9828;54.122;17.974;2022-12-20T08:36:02;2.60;99.90
19385;DHT22;9828;54.122;17.974;2022-12-20T08:41:24;2.50;99.90
19385;DHT22;9828;54.122;17.974;2022-12-20T08:46:45;2.60;99.90
19385;DHT22;9828;54.122;17.974;2022-12-20T08:52:06;2.60;99.90
19385;DHT22;9828;54.122;17.974;2022-12-20T08:57:27;2.70;99.90
19385;DHT22;9828;54.122;17.974;2022-12-20T09:02:49;2.60;99.90
19385;DHT22;9828;54.122;17.974;2022-12-20T09:08:12;2.60;99.90
19385;DHT22;9828;54.122;17.974;2022-12-20T09:13:34;2.70;99.90
19385;DHT22;9828;54.122;17.974;2022-12-20T09:19:00;2.70;99.90
19385;DHT22;9828;54.122;17.974;2022-12-20T09:24:24;2.80;99.90
19385;DHT22;9828;54.122;17.974;2022-12-20T09:29:45;2.80;99.90
19385;DHT22;9828;54.122;17.974;2022-12-20T09:35:06;2.80;99.90
19385;DHT22;9828;54.122;17.974;2022-12-20T09:40:29;2.80;99.90
19385;DHT22;9828;54.122;17.974;2022-12-20T09:45:54;3.00;99.90
19385;DHT22;9828;54.122;17.974;2022-12-20T09:52:10;3.00;99.90
19385;DHT22;9828;54.122;17.974;2022-12-20T09:57:45;3.00;99.90
19385;DHT22;9828;54.122;17.974;2022-12-20T10:03:15;3.30;99.90
19385;DHT22;9828;54.122;17.974;2022-12-20T10:09:05;3.30;99.90
19385;DHT22;9828;54.122;17.974;2022-12-20T10:25:33;3.10;99.90
19385;DHT22;9828;54.122;17.974;2022-12-20T10:30:58;3.20;99.90
19385;DHT22;9828;54.122;17.974;2022-12-20T10:36:31;3.20;99.90
19385;DHT22;9828;54.122;17.974;2022-12-20T10:41:53;3.30;99.90
19385;DHT22;9828;54.122;17.974;2022-12-20T10:47:34;3.30;99.90
19385;DHT22;9828;54.122;17.974;2022-12-20T10:58:36;3.40;99.90
19385;DHT22;9828;54.122;17.974;2022-12-20T11:04:01;3.30;99.90
19385;DHT22;9828;54.122;17.974;2022-12-20T11:09:32;3.30;99.90
19385;DHT22;9828;54.122;17.974;2022-12-20T11:15:18;3.30;99.90
19385;DHT22;9828;54.122;17.974;2022-12-20T11:37:35;3.50;99.90
19385;DHT22;9828;54.122;17.974;2022-12-20T11:54:35;3.60;99.90
19385;DHT22;9828;54.122;17.974;2022-12-20T12:00:00;3.60;99.90
19385;DHT22;9828;54.122;17.974;2022-12-20T12:05:45;3.60;99.90
19385;DHT22;9828;54.122;17.974;2022-12-20T12:11:16;3.60;99.90
19385;DHT22;9828;54.122;17.974;2022-12-20T12:16:56;3.60;99.90
19385;DHT22;9828;54.122;17.974;2022-12-20T12:33:15;3.90;99.90
19385;DHT22;9828;54.122;17.974;2022-12-20T12:39:38;3.60;99.90
19385;DHT22;9828;54.122;17.974;2022-12-20T12:45:31;3.60;99.90
19385;DHT22;9828;54.122;17.974;2022-12-20T12:50:56;3.60;99.90
19385;DHT22;9828;54.122;17.974;2022-12-20T13:12:58;3.60;99.90
19385;DHT22;9828;54.122;17.974;2022-12-20T13:18:23;3.60;99.90
19385;DHT22;9828;54.122;17.974;2022-12-20T13:23:44;3.60;99.90
19385;DHT22;9828;54.122;17.974;2022-12-20T13:29:25;3.60;99.90
19385;DHT22;9828;54.122;17.974;2022-12-20T13:34:55;3.60;99.90
19385;DHT22;9828;54.122;17.974;2022-12-20T13:51:30;3.60;99.90
19385;DHT22;9828;54.122;17.974;2022-12-20T13:56:51;3.60;99.90
19385;DHT22;9828;54.122;17.974;2022-12-20T14:02:21;3.60;99.90
19385;DHT22;9828;54.122;17.974;2022-12-20T14:07:59;3.70;99.90
19385;DHT22;9828;54.122;17.974;2022-12-20T14:13:25;3.60;99.90
19385;DHT22;9828;54.122;17.974;2022-12-20T14:19:13;3.60;99.90
19385;DHT22;9828;54.122;17.974;2022-12-20T14:24:40;3.60;99.90
19385;DHT22;9828;54.122;17.974;2022-12-20T14:30:04;3.50;99.90
19385;DHT22;9828;54.122;17.974;2022-12-20T14:35:26;3.50;99.90
19385;DHT22;9828;54.122;17.974;2022-12-20T14:40:48;3.40;99.90
19385;DHT22;9828;54.122;17.974;2022-12-20T14:46:20;3.50;99.90
19385;DHT22;9828;54.122;17.974;2022-12-20T14:51:42;3.50;99.90
19385;DHT22;9828;54.122;17.974;2022-12-20T14:57:10;3.60;99.90
19385;DHT22;9828;54.122;17.974;2022-12-20T15:02:44;3.60;99.90
19385;DHT22;9828;54.122;17.974;2022-12-20T15:13:43;3.70;99.90
19385;DHT22;9828;54.122;17.974;2022-12-20T15:19:08;3.60;99.90
19385;DHT22;9828;54.122;17.974;2022-12-20T15:24:31;3.70;99.90
19385;DHT22;9828;54.122;17.974;2022-12-20T15:29:52;3.70;99.90
19385;DHT22;9828;54.122;17.974;2022-12-20T15:35:14;3.60;99.90
19385;DHT22;9828;54.122;17.974;2022-12-20T15:40:36;3.70;99.90
19385;DHT22;9828;54.122;17.974;2022-12-20T15:45:57;3.70;99.90
19385;DHT22;9828;54.122;17.974;2022-12-20T15:51:29;3.70;99.90
19385;DHT22;9828;54.122;17.974;2022-12-20T15:56:51;3.60;99.90
19385;DHT22;9828;54.122;17.974;2022-12-20T16:02:26;3.60;99.90
19385;DHT22;9828;54.122;17.974;2022-12-20T16:07:48;3.60;99.90
19385;DHT22;9828;54.122;17.974;2022-12-20T16:13:21;3.60;99.90
19385;DHT22;9828;54.122;17.974;2022-12-20T16:18:42;3.60;99.90
19385;DHT22;9828;54.122;17.974;2022-12-20T16:24:04;3.60;99.90
19385;DHT22;9828;54.122;17.974;2022-12-20T16:29:25;3.60;99.90
19385;DHT22;9828;54.122;17.974;2022-12-20T16:34:50;3.50;99.90
19385;DHT22;9828;54.122;17.974;2022-12-20T16:40:12;3.50;99.90
19385;DHT22;9828;54.122;17.974;2022-12-20T16:45:35;3.50;99.90
19385;DHT22;9828;54.122;17.974;2022-12-20T16:50:56;3.50;99.90
19385;DHT22;9828;54.122;17.974;2022-12-20T16:56:18;3.50;99.90
19385;DHT22;9828;54.122;17.974;2022-12-20T17:01:40;3.50;99.90
19385;DHT22;9828;54.122;17.974;2022-12-20T17:07:02;3.40;99.90
19385;DHT22;9828;54.122;17.974;2022-12-20T17:12:22;3.40;99.90
19385;DHT22;9828;54.122;17.974;2022-12-20T17:17:44;3.30;99.90
19385;DHT22;9828;54.122;17.974;2022-12-20T17:23:08;3.30;99.90
19385;DHT22;9828;54.122;17.974;2022-12-20T17:28:31;3.30;99.90
19385;DHT22;9828;54.122;17.974;2022-12-20T17:33:52;3.30;99.90
19385;DHT22;9828;54.122;17.974;2022-12-20T17:39:14;3.30;99.90
19385;DHT22;9828;54.122;17.974;2022-12-20T17:44:34;3.20;99.90
19385;DHT22;9828;54.122;17.974;2022-12-20T17:49:56;3.20;99.90
19385;DHT22;9828;54.122;17.974;2022-12-20T17:55:23;3.30;99.90
19385;DHT22;9828;54.122;17.974;2022-12-20T18:00:45;3.20;99.90
19385;DHT22;9828;54.122;17.974;2022-12-20T18:06:06;3.20;99.90
19385;DHT22;9828;54.122;17.974;2022-12-20T18:11:28;3.20;99.90
19385;DHT22;9828;54.122;17.974;2022-12-20T18:16:49;3.30;99.90
19385;DHT22;9828;54.122;17.974;2022-12-20T18:22:10;3.40;99.90
19385;DHT22;9828;54.122;17.974;2022-12-20T18:27:36;3.40;99.90
19385;DHT22;9828;54.122;17.974;2022-12-20T18:32:57;3.40;99.90
19385;DHT22;9828;54.122;17.974;2022-12-20T18:38:18;3.40;99.90
19385;DHT22;9828;54.122;17.974;2022-12-20T18:43:43;3.40;99.90
19385;DHT22;9828;54.122;17.974;2022-12-20T18:49:05;3.40;99.90
19385;DHT22;9828;54.122;17.974;2022-12-20T18:54:26;3.30;99.90
19385;DHT22;9828;54.122;17.974;2022-12-20T18:59:47;3.40;99.90
19385;DHT22;9828;54.122;17.974;2022-12-20T19:05:09;3.30;99.90
19385;DHT22;9828;54.122;17.974;2022-12-20T19:10:31;3.30;99.90
19385;DHT22;9828;54.122;17.974;2022-12-20T19:16:07;3.40;99.90
19385;DHT22;9828;54.122;17.974;2022-12-20T19:21:30;3.40;99.90
19385;DHT22;9828;54.122;17.974;2022-12-20T19:26:52;3.40;99.90
19385;DHT22;9828;54.122;17.974;2022-12-20T19:32:13;3.40;99.90
19385;DHT22;9828;54.122;17.974;2022-12-20T19:37:35;3.40;99.90
19385;DHT22;9828;54.122;17.974;2022-12-20T19:42:57;3.40;99.90
19385;DHT22;9828;54.122;17.974;2022-12-20T19:48:18;3.30;99.90
19385;DHT22;9828;54.122;17.974;2022-12-20T19:53:42;3.40;99.90
19385;DHT22;9828;54.122;17.974;2022-12-20T19:59:04;3.40;99.90
19385;DHT22;9828;54.122;17.974;2022-12-20T20:04:26;3.40;99.90
19385;DHT22;9828;54.122;17.974;2022-12-20T20:09:47;3.40;99.90
19385;DHT22;9828;54.122;17.974;2022-12-20T20:15:08;3.40;99.90
19385;DHT22;9828;54.122;17.974;2022-12-20T20:20:29;3.30;99.90
19385;DHT22;9828;54.122;17.974;2022-12-20T20:25:54;3.30;99.90
19385;DHT22;9828;54.122;17.974;2022-12-20T20:31:18;3.30;99.90
19385;DHT22;9828;54.122;17.974;2022-12-20T20:36:39;3.30;99.90
19385;DHT22;9828;54.122;17.974;2022-12-20T20:42:00;3.40;99.90
19385;DHT22;9828;54.122;17.974;2022-12-20T20:47:22;3.40;99.90
19385;DHT22;9828;54.122;17.974;2022-12-20T20:52:43;3.40;99.90
19385;DHT22;9828;54.122;17.974;2022-12-20T20:58:04;3.40;99.90
19385;DHT22;9828;54.122;17.974;2022-12-20T21:03:27;3.40;99.90
19385;DHT22;9828;54.122;17.974;2022-12-20T21:08:48;3.40;99.90
19385;DHT22;9828;54.122;17.974;2022-12-20T21:14:09;3.40;99.90
19385;DHT22;9828;54.122;17.974;2022-12-20T21:19:31;3.40;99.90
19385;DHT22;9828;54.122;17.974;2022-12-20T21:24:52;3.50;99.90
19385;DHT22;9828;54.122;17.974;2022-12-20T21:30:13;3.50;99.90
19385;DHT22;9828;54.122;17.974;2022-12-20T21:35:34;3.40;99.90
19385;DHT22;9828;54.122;17.974;2022-12-20T21:41:03;3.40;99.90
19385;DHT22;9828;54.122;17.974;2022-12-20T21:46:27;3.40;99.90
19385;DHT22;9828;54.122;17.974;2022-12-20T21:51:49;3.40;99.90
19385;DHT22;9828;54.122;17.974;2022-12-20T21:57:10;3.40;99.90
19385;DHT22;9828;54.122;17.974;2022-12-20T22:02:31;3.40;99.90
19385;DHT22;9828;54.122;17.974;2022-12-20T22:07:52;3.40;99.90
19385;DHT22;9828;54.122;17.974;2022-12-20T22:13:13;3.40;99.90
19385;DHT22;9828;54.122;17.974;2022-12-20T22:18:35;3.30;99.90
19385;DHT22;9828;54.122;17.974;2022-12-20T22:23:57;3.40;99.90
19385;DHT22;9828;54.122;17.974;2022-12-20T22:29:18;3.40;99.90
19385;DHT22;9828;54.122;17.974;2022-12-20T22:34:40;3.30;99.90
19385;DHT22;9828;54.122;17.974;2022-12-20T22:40:01;3.30;99.90
19385;DHT22;9828;54.122;17.974;2022-12-20T22:45:22;3.30;99.90
19385;DHT22;9828;54.122;17.974;2022-12-20T22:50:43;3.30;99.90
19385;DHT22;9828;54.122;17.974;2022-12-20T22:56:05;3.30;99.90
19385;DHT22;9828;54.122;17.974;2022-12-20T23:01:26;3.30;99.90
19385;DHT22;9828;54.122;17.974;2022-12-20T23:06:47;3.30;99.90
19385;DHT22;9828;54.122;17.974;2022-12-20T23:12:09;3.40;99.90
19385;DHT22;9828;54.122;17.974;2022-12-20T23:17:49;3.40;99.90
19385;DHT22;9828;54.122;17.974;2022-12-20T23:23:10;3.40;99.90
19385;DHT22;9828;54.122;17.974;2022-12-20T23:28:31;3.40;99.90
19385;DHT22;9828;54.122;17.974;2022-12-20T23:33:52;3.40;99.90
19385;DHT22;9828;54.122;17.974;2022-12-20T23:39:14;3.40;99.90
19385;DHT22;9828;54.122;17.974;2022-12-20T23:44:35;3.40;99.90
19385;DHT22;9828;54.122;17.974;2022-12-20T23:49:56;3.30;99.90
19385;DHT22;9828;54.122;17.974;2022-12-20T23:55:17;3.30;99.90
